Uliastai, China
Current Conditions -  °F | °C
As of 5:30 PM on Monday 22 Dec 2014 (Local Time) from ZBAA Reporting Station
Clear Clear  
Wind Chill: 41°   Ceiling: Unl
Heat Index: 45°   Visibility: 6mi
Dew Point:   Wind: 7mph
Humidity: 23%   Direction: 210°SSW
Pressure: 30.18"   Gusts: NA
Location:  45.52°N, 116.97°E
Report Text: ZBAA 220930Z 21003MPS 180V260 CAVOK 07/M13 Q1022 NOSIG
Loading
Personal Weather Stations






























Interactive Weather Map New forecast layout! Learn more

10-Day Weather Forecast

Advertisements
Track Severe Weather on mobile